• Join FlightAware (Why Join?)
  • Login
  • US Flag 
08:47AM EDT


 

Airport Tracker/Info


-or-


 

Live Flight TrackerFlight Track Log ✈ SKW6345 ✈ 18-Jun-2013 ✈ KBZN - KSFO

Flight Track Log - Related Links

Times and Time Zones

All times are in EDT time to prevent confusion due to time zone crossing. See the SKW6345 flight status page for this flight to view local times or setup timezone preferences in your user account.

Time Position Orientation Groundspeed Altitude Reporting Facility
EDT Latitude Longitude Course Direction KTS MPH feet Rate Location/Type
02:21PM 45.7222 -111.1631 213° Southwest 184 212 7,900  Level Salt Lake Center
02:22PM 45.7284 -111.5152 282° West  Level FlightAware Approximate
02:22PM 45.7006 -111.2367 247° West 202 232 9,800  Level Salt Lake Center
02:23PM 45.7401 -111.6638 288° West  Level FlightAware Approximate
02:23PM 45.7122 -111.3375 279° West 235 270 11,500  Level Salt Lake Center
02:24PM 45.7702 -111.7993 288° West  Level FlightAware Approximate
02:24PM 45.7281 -111.4747 279° West 274 315 13,200  Level Salt Lake Center
02:25PM 45.8004 -111.9349 290° West  Level FlightAware Approximate
02:25PM 45.7422 -111.6039 279° West 314 361 15,000  Level Salt Lake Center
02:26PM 45.7656 -111.7306 285° West 329 379 16,700 1,740 Climbing Salt Lake Center
02:27PM 45.7772 -111.8592 277° West 336 387 18,600 1,500 Climbing Salt Lake Center
02:28PM 45.7189 -111.9564 229° Southwest 323 372 19,900 1,200 Climbing Salt Lake Center
02:29PM 45.6525 -112.0544 226° Southwest 338 389 21,100 1,320 Climbing Salt Lake Center
02:30PM 45.5706 -112.1719 225° Southwest 348 400 22,700 1,140 Climbing Salt Lake Center
02:31PM 45.5003 -112.2719 225° Southwest 354 407 23,500 900 Climbing Salt Lake Center
02:32PM 45.4278 -112.3750 225° Southwest 366 421 24,600 960 Climbing Salt Lake Center
02:33PM 45.3514 -112.4825 225° Southwest 374 430 25,600 840 Climbing Salt Lake Center
02:34PM 45.2806 -112.5819 225° Southwest 376 433 26,400 720 Climbing Salt Lake Center
02:35PM 45.1964 -112.6994 225° Southwest 381 438 27,100 720 Climbing Salt Lake Center
02:36PM 45.1231 -112.8025 225° Southwest 386 444 27,900 660 Climbing Salt Lake Center
02:37PM 45.0378 -112.9217 225° Southwest 387 445 28,500 720 Climbing Salt Lake Center
02:38PM 44.9633 -113.0250 225° Southwest 390 449 29,400 720 Climbing Salt Lake Center
02:39PM 44.8753 -113.1456 224° Southwest 394 453 30,100 720 Climbing Salt Lake Center
02:40PM 44.8000 -113.2472 224° Southwest 394 453 30,900 780 Climbing Salt Lake Center
02:41PM 44.7136 -113.3647 224° Southwest 389 448 31,800 480 Climbing Salt Lake Center
02:42PM 44.6422 -113.4650 225° Southwest 382 440 32,000 60 Climbing Salt Lake Center
02:43PM 44.5522 -113.5858 224° Southwest 398 458 32,000  Level Salt Lake Center
02:44PM 44.4733 -113.6919 224° Southwest 410 472 32,000  Level Salt Lake Center
02:45PM 44.3819 -113.8142 224° Southwest 409 471 32,000  Level Salt Lake Center
02:46PM 44.3042 -113.9197 224° Southwest 409 471 32,000  Level Salt Lake Center
02:48PM 44.2139 -114.0411 224° Southwest 412 474 32,000  Level Salt Lake Center
02:49PM 44.1347 -114.1450 223° Southwest 410 472 32,000  Level Salt Lake Center
02:50PM 44.0439 -114.2675 224° Southwest 409 471 32,000  Level Salt Lake Center
02:51PM 43.9669 -114.3697 224° Southwest 403 464 32,000  Level Salt Lake Center
02:52PM 43.8872 -114.4731 223° Southwest 405 466 32,000  Level Salt Lake Center
02:53PM 43.7950 -114.5936 223° Southwest 407 468 32,000  Level Salt Lake Center
02:54PM 43.7169 -114.6953 223° Southwest 405 466 32,000  Level Salt Lake Center
02:55PM 43.6247 -114.8150 223° Southwest 405 466 32,000  Level Salt Lake Center
02:56PM 43.5453 -114.9175 223° Southwest 406 467 32,000  Level Salt Lake Center
02:57PM 43.4536 -115.0358 223° Southwest 405 466 32,000  Level Salt Lake Center
02:58PM 43.3750 -115.1369 223° Southwest 404 465 32,000  Level Salt Lake Center
02:59PM 43.2828 -115.2536 223° Southwest 404 465 32,000  Level Salt Lake Center
03:00PM 43.2039 -115.3533 223° Southwest 402 463 32,000  Level Salt Lake Center
03:01PM 43.1122 -115.4689 223° Southwest 401 461 32,000  Level Salt Lake Center
03:02PM 43.0331 -115.5689 223° Southwest 402 463 32,000  Level Salt Lake Center
03:03PM 42.9544 -115.6678 223° Southwest 402 463 32,000  Level Salt Lake Center
03:04PM 42.8617 -115.7831 222° Southwest 402 463 32,000  Level Salt Lake Center
03:05PM 42.7825 -115.8814 222° Southwest 402 463 32,000  Level Salt Lake Center
03:06PM 42.6897 -115.9953 222° Southwest 402 463 32,000  Level Salt Lake Center
03:07PM 42.6114 -116.0944 223° Southwest 402 463 32,000  Level Salt Lake Center
03:08PM 42.5189 -116.2081 222° Southwest 402 463 32,000  Level Salt Lake Center
03:09PM 42.4397 -116.3061 222° Southwest 401 461 32,000  Level Salt Lake Center
03:10PM 42.3750 -116.4181 232° Southwest 398 458 32,000  Level Salt Lake Center
03:11PM 42.3025 -116.5564 235° Southwest 399 459 32,000  Level Salt Lake Center
03:12PM 42.2392 -116.6750 234° Southwest 403 464 32,000  Level Salt Lake Center
03:13PM 42.1667 -116.8097 234° Southwest 403 464 32,000  Level Salt Lake Center
03:14PM 42.1025 -116.9267 234° Southwest 405 466 32,000  Level Salt Lake Center
03:15PM 42.0281 -117.0606 233° Southwest 402 463 32,000  Level Salt Lake Center
03:16PM 41.9650 -117.1756 234° Southwest 401 461 32,000  Level Salt Lake Center
03:17PM 41.8903 -117.3125 234° Southwest 405 466 32,000  Level Salt Lake Center
03:18PM 41.8269 -117.4281 234° Southwest 404 465 32,000  Level Salt Lake Center
03:20PM 41.7517 -117.5625 233° Southwest 403 464 32,000  Level Salt Lake Center
03:21PM 41.6867 -117.6794 233° Southwest 408 470 32,000  Level Salt Lake Center
03:22PM 41.6108 -117.8139 233° Southwest 408 470 32,000  Level Salt Lake Center
03:23PM 41.5453 -117.9308 233° Southwest 410 472 32,000  Level Salt Lake Center
03:24PM 41.4692 -118.0644 233° Southwest 407 468 32,000  Level Salt Lake Center
03:25PM 41.4044 -118.1781 233° Southwest 403 464 32,000  Level Salt Lake Center
03:26PM 41.3394 -118.2911 233° Southwest 403 464 32,000  Level Salt Lake Center
03:27PM 41.2650 -118.4233 233° Southwest 401 461 32,000  Level Salt Lake Center
03:28PM 41.1994 -118.5353 232° Southwest 402 463 32,000  Level Salt Lake Center
03:29PM 41.1247 -118.6661 233° Southwest 400 460 32,000  Level Salt Lake Center
03:30PM 41.0600 -118.7778 232° Southwest 400 460 32,000  Level Salt Lake Center
03:31PM 40.9842 -118.9067 232° Southwest 398 458 32,000  Level Salt Lake Center
03:32PM 40.9203 -119.0158 232° Southwest 395 455 32,000  Level Salt Lake Center
03:33PM 40.8464 -119.1428 232° Southwest 391 450 32,000  Level Salt Lake Center
03:34PM 40.8042 -119.2142 232° Southwest 391 450 32,000  Level Oakland Center
03:35PM 40.7425 -119.3206 233° Southwest 391 450 32,000  Level Oakland Center
03:36PM 40.6753 -119.4339 232° Southwest 392 451 32,000  Level Oakland Center
03:37PM 40.6097 -119.5442 232° Southwest 386 444 32,000 -60 Level Oakland Center
03:38PM 40.5300 -119.6789 232° Southwest 386 444 31,900 -600 Descending Oakland Center
03:39PM 40.4611 -119.7919 231° Southwest 394 453 30,900 -900 Descending Oakland Center
03:40PM 40.3925 -119.9067 232° Southwest 399 459 30,100 -480 Descending Oakland Center
03:41PM 40.3261 -120.0164 232° Southwest 389 448 30,000 -60 Descending Oakland Center
03:42PM 40.2592 -120.1256 231° Southwest 387 445 30,000  Level Oakland Center
03:43PM 40.1933 -120.2339 232° Southwest 383 441 30,000  Level Oakland Center
03:44PM 40.1278 -120.3414 231° Southwest 380 437 30,000  Level Oakland Center
03:45PM 40.0633 -120.4475 232° Southwest 377 434 30,000  Level Oakland Center
03:46PM 40.0003 -120.5503 231° Southwest 366 421 30,000  Level Oakland Center
03:47PM 39.9356 -120.6544 231° Southwest 369 425 30,000  Level Oakland Center
03:48PM 39.8717 -120.7572 231° Southwest 367 422 30,000 -600 Level Oakland Center
03:49PM 39.7956 -120.8797 231° Southwest 365 420 28,800 -1,380 Descending Oakland Center
03:50PM 39.7292 -120.9869 231° Southwest 377 434 27,300 -1,380 Descending Oakland Center
03:51PM 39.6633 -121.0933 231° Southwest 379 436 26,000 -660 Descending Oakland Center
03:52PM 39.6006 -121.1919 230° Southwest 372 428 26,000  Level Oakland Center
03:53PM 39.5322 -121.2892 228° Southwest 365 420 26,000  Level Oakland Center
03:54PM 39.4525 -121.3750 220° Southwest 361 415 26,000  Level Oakland Center
03:55PM 39.3775 -121.4600 221° Southwest 359 413 26,000  Level Oakland Center
03:56PM 39.3017 -121.5439 221° Southwest 359 413 26,000  Level Oakland Center
03:57PM 39.2275 -121.6258 221° Southwest 354 407 26,000  Level Oakland Center
03:58PM 39.1417 -121.7228 221° Southwest 344 396 26,000  Level Oakland Center
03:59PM 39.0711 -121.8006 221° Southwest 338 389 26,000  Level Oakland Center
04:00PM 39.0000 -121.8783 220° Southwest 336 387 26,000  Level Oakland Center
04:01PM 38.9300 -121.9544 220° Southwest 334 384 26,000 -180 Level Oakland Center
04:02PM 38.8597 -122.0317 221° Southwest 334 384 25,700 -540 Descending Oakland Center
04:03PM 38.7853 -122.1133 221° Southwest 348 400 24,900 -840 Descending Oakland Center
04:04PM 38.7072 -122.1981 220° Southwest 365 420 24,000 -1,020 Descending Oakland Center
04:05PM 38.6161 -122.2961 220° Southwest 374 430 22,900 -1,020 Descending Oakland Center
04:06PM 38.5217 -122.3589 207° Southwest 378 435 22,000 -900 Descending Oakland Center
04:07PM 38.4214 -122.4103 202° Southwest 386 444 21,100 -960 Descending Oakland Center
04:08PM 38.3258 -122.4594 202° Southwest 371 427 20,100 -1,440 Descending Oakland Center
04:09PM 38.2308 -122.5075 202° Southwest 367 422 18,200 -2,100 Descending Oakland Center
04:10PM 38.1331 -122.5572 202° Southwest 376 433 15,900 -2,340 Descending Oakland Center
04:11PM 38.0381 -122.6058 202° Southwest 372 428 13,500 -2,400 Descending Oakland Center
04:12PM 37.9292 -122.6603 202° Southwest 367 422 11,000 -1,320 Descending Oakland Center
04:13PM 37.8403 -122.6106 156° South 390 449 10,900  Descending Oakland Center
04:14PM 37.7833 -122.5333 133° Southeast 375 432 11,000 60 Climbing Northern Cal TRACON
04:15PM 37.7167 -122.4667 142° Southeast 292 336 11,000 -420 Level Northern Cal TRACON
04:16PM 37.7000 -122.3833 104° East 238 274 10,200 -1,560 Descending Northern Cal TRACON
04:17PM 37.6667 -122.3000 117° Southeast 248 285 7,800 -2,100 Descending Northern Cal TRACON
04:18PM 37.6333 -122.2167 117° Southeast 242 278 6,000 -1,380 Descending Northern Cal TRACON
04:19PM 37.6167 -122.1500 107° East 216 249 5,100 -1,320 Descending Northern Cal TRACON
04:20PM 37.5667 -122.1833 208° Southwest 196 226 3,500 -1,380 Descending Northern Cal TRACON
04:21PM 37.5667 -122.2333 270° West 156 180 2,500 -1,080 Descending Northern Cal TRACON
04:22PM 37.5833 -122.2667 302° West 132 152 1,500 -1,020 Descending Northern Cal TRACON